Hickman, California
Current Conditions -  °F | °C
As of 3:53 PM on Friday 24 Oct 2014 (Local Time) from KMOD Reporting Station
Clear Clear  
Wind Chill: 80°   Ceiling: Unl
Heat Index: 80°   Visibility: 10mi
Dew Point: 50°   Wind: 8mph
Humidity: 35%   Direction: 140°SE
Pressure: 29.84"   Gusts: NA
Location:  37.62°N, 120.75°W
Report Text: KMOD 242253Z 14007KT 10SM CLR 27/10 A2984 RMK AO2 SLP107 T02670100
Loading
Personal Weather Stations






























Interactive Weather Map
Tropical Storm Tracking
New forecast layout! Learn more

10-Day Weather Forecast

Advertisements
Track Severe Weather on mobile